Parnell, Kentucky
Current Conditions -  °F | °C
As of 12:56 PM on Thursday 27 Nov 2014 (Local Time) from KEKQ Reporting Station
Overcast Overcast  
Wind Chill: 25°   Ceiling: 2000
Heat Index: 34°   Visibility: 10mi
Dew Point: 28°   Wind: 12mph
Humidity: 79%   Direction: 310°NW
Pressure: 30.35"   Gusts: NA
Location:  36.8129°N, 84.8215°W
Report Text: KEKQ 271756Z AUTO 31010KT 10SM OVC020 01/M02 A3035 RMK AO2 51012 60000 T00111022 10016 20011 SLP287
Loading
Personal Weather Stations






























Interactive Weather Map New forecast layout! Learn more

10-Day Weather Forecast

Advertisements
Track Severe Weather on mobile